Time;durP1;ratioP1;P1;durP2;ratioP2;P2;SDS_P1;SDS_P2;PMS_P1;PMS_P2;Temp;Humidity;BMP_temperature;BMP_pressure;BME280_temperature;BME280_humidity;BME280_pressure;Samples;Min_cycle;Max_cycle;Signal;HPM_P1;HPM_P2
2022/03/23 00:02:15;;;;;;;27.42;18.42;;;;;;;;;;5001853;28;20195;-78
2022/03/23 00:04:41;;;;;;;27.70;19.23;;;;;;;;;;4987200;28;20184;-78
2022/03/23 00:07:07;;;;;;;25.20;18.10;;;;;;;;;;4981307;28;20487;-78
2022/03/23 00:09:33;;;;;;;29.15;19.05;;;;;;;;;;4980036;28;20443;-78
2022/03/23 00:11:59;;;;;;;27.65;18.42;;;;;;;;;;4985156;28;20713;-78
2022/03/23 00:14:25;;;;;;;29.95;17.00;;;;;;;;;;4985255;28;20600;-78
2022/03/23 00:16:51;;;;;;;26.70;17.88;;;;;;;;;;4986934;28;20176;-78
2022/03/23 00:19:17;;;;;;;23.50;16.90;;;;;;;;;;4986753;28;20211;-78
2022/03/23 00:21:44;;;;;;;29.45;16.90;;;;;;;;;;4981066;28;20188;-78
2022/03/23 00:24:10;;;;;;;26.40;19.10;;;;;;;;;;4976691;28;20187;-78
2022/03/23 00:26:36;;;;;;;24.90;17.75;;;;;;;;;;4985124;28;20187;-78
2022/03/23 00:29:03;;;;;;;22.98;16.10;;;;;;;;;;4986440;28;20179;-78
2022/03/23 00:31:29;;;;;;;23.05;15.93;;;;;;;;;;4985690;28;20215;-78
2022/03/23 00:33:55;;;;;;;26.63;16.00;;;;;;;;;;4981125;28;20453;-78
2022/03/23 00:36:23;;;;;;;28.52;16.73;;;;;;;;;;4985771;28;20180;-78
2022/03/23 00:38:50;;;;;;;25.52;17.42;;;;;;;;;;4986030;28;20184;-78
2022/03/23 00:41:16;;;;;;;22.15;14.43;;;;;;;;;;4986125;28;20207;-78
2022/03/23 00:43:42;;;;;;;25.50;16.75;;;;;;;;;;4985898;28;20262;-78
2022/03/23 00:46:09;;;;;;;29.35;15.40;;;;;;;;;;4974492;28;20216;-78
2022/03/23 00:48:35;;;;;;;21.33;14.77;;;;;;;;;;4979966;28;20275;-77
2022/03/23 00:51:01;;;;;;;21.20;14.27;;;;;;;;;;4985787;28;20192;-78
2022/03/23 00:53:27;;;;;;;18.15;13.65;;;;;;;;;;4983839;28;20204;-78
2022/03/23 00:55:53;;;;;;;19.30;14.82;;;;;;;;;;4986870;28;20183;-78
2022/03/23 00:58:19;;;;;;;17.75;14.30;;;;;;;;;;4985872;28;20552;-78
2022/03/23 01:00:45;;;;;;;18.92;13.20;;;;;;;;;;4981226;28;20216;-78
2022/03/23 01:03:11;;;;;;;19.42;12.60;;;;;;;;;;4997598;28;20194;-78
2022/03/23 01:05:37;;;;;;;19.15;13.00;;;;;;;;;;5000558;28;20195;-78
2022/03/23 01:08:03;;;;;;;24.00;14.45;;;;;;;;;;4997980;28;20187;-78
2022/03/23 01:10:30;;;;;;;22.92;14.80;;;;;;;;;;4983384;28;20191;-78
2022/03/23 01:12:56;;;;;;;18.63;13.85;;;;;;;;;;4981152;28;20232;-78
2022/03/23 01:15:22;;;;;;;19.50;13.68;;;;;;;;;;4977507;28;20188;-78
2022/03/23 01:17:49;;;;;;;24.20;14.68;;;;;;;;;;4983473;28;20187;-78
2022/03/23 01:20:16;;;;;;;20.65;13.52;;;;;;;;;;4985756;28;20195;-78
2022/03/23 01:22:43;;;;;;;23.65;15.63;;;;;;;;;;4984219;28;20172;-78
2022/03/23 01:25:09;;;;;;;19.85;13.43;;;;;;;;;;4980505;28;20220;-78
2022/03/23 01:27:39;;;;;;;16.50;12.93;;;;;;;;;;4989031;28;20176;-78
2022/03/23 01:30:06;;;;;;;21.08;13.70;;;;;;;;;;4974679;28;20222;-78
2022/03/23 01:32:33;;;;;;;25.67;13.55;;;;;;;;;;4983628;28;20180;-78
2022/03/23 01:34:59;;;;;;;18.80;14.32;;;;;;;;;;4984882;28;20299;-78
2022/03/23 01:37:25;;;;;;;22.48;13.73;;;;;;;;;;4984918;28;20433;-78
2022/03/23 01:39:51;;;;;;;18.17;13.35;;;;;;;;;;4980591;28;20585;-78
2022/03/23 01:42:17;;;;;;;19.27;14.52;;;;;;;;;;4976517;28;20299;-78
2022/03/23 01:44:44;;;;;;;16.98;13.07;;;;;;;;;;4985247;28;20256;-78
2022/03/23 01:47:09;;;;;;;17.65;13.40;;;;;;;;;;4984097;28;20172;-78
2022/03/23 01:49:40;;;;;;;19.17;13.60;;;;;;;;;;4984988;28;20184;-78
2022/03/23 01:52:07;;;;;;;20.55;12.95;;;;;;;;;;4984208;28;20447;-78
2022/03/23 01:54:34;;;;;;;21.42;12.88;;;;;;;;;;4984233;28;20235;-78
2022/03/23 01:57:01;;;;;;;20.02;11.40;;;;;;;;;;4982815;28;20183;-78
2022/03/23 01:59:27;;;;;;;25.15;14.57;;;;;;;;;;4982652;28;20182;-78
2022/03/23 02:01:53;;;;;;;20.45;13.35;;;;;;;;;;4985516;28;20704;-78
2022/03/23 02:04:19;;;;;;;20.80;13.60;;;;;;;;;;4984048;28;20202;-78
2022/03/23 02:06:48;;;;;;;20.45;13.73;;;;;;;;;;4981316;28;20195;-78
2022/03/23 02:09:14;;;;;;;21.02;14.18;;;;;;;;;;4980808;28;20188;-78
2022/03/23 02:11:41;;;;;;;21.65;13.57;;;;;;;;;;4984466;28;20301;-78
2022/03/23 02:14:07;;;;;;;23.88;14.27;;;;;;;;;;4988950;28;20232;-78
2022/03/23 02:16:43;;;;;;;16.20;11.55;;;;;;;;;;4983791;28;20176;-78
2022/03/23 02:19:10;;;;;;;17.98;11.75;;;;;;;;;;4979113;28;20519;-78
2022/03/23 02:21:36;;;;;;;25.20;14.30;;;;;;;;;;4978144;28;20184;-78
2022/03/23 02:24:05;;;;;;;17.95;12.63;;;;;;;;;;4982152;28;20188;-78
2022/03/23 02:26:32;;;;;;;20.35;12.07;;;;;;;;;;4982469;28;20668;-78
2022/03/23 02:28:58;;;;;;;19.35;13.02;;;;;;;;;;4996202;28;20185;-78
2022/03/23 02:31:24;;;;;;;17.73;12.52;;;;;;;;;;4983981;28;20175;-78
2022/03/23 02:33:50;;;;;;;17.23;12.85;;;;;;;;;;4983257;28;20729;-78
2022/03/23 02:36:16;;;;;;;18.15;11.25;;;;;;;;;;4983342;28;20188;-78
2022/03/23 02:38:42;;;;;;;18.87;13.43;;;;;;;;;;4984281;28;20183;-78
2022/03/23 02:41:09;;;;;;;20.42;11.95;;;;;;;;;;4997709;28;20432;-78
2022/03/23 02:43:35;;;;;;;16.95;12.75;;;;;;;;;;4980151;28;20192;-78
2022/03/23 02:46:02;;;;;;;17.10;13.55;;;;;;;;;;4980719;28;20206;-78
2022/03/23 02:48:28;;;;;;;18.08;11.80;;;;;;;;;;4983111;28;20184;-78
2022/03/23 02:50:54;;;;;;;17.70;11.52;;;;;;;;;;4982102;28;20191;-78
2022/03/23 03:02:01;;;;;;;21.25;12.52;;;;;;;;;;4962990;29;20219;-78
2022/03/23 03:04:29;;;;;;;21.05;11.38;;;;;;;;;;4962198;29;20192;-78
2022/03/23 03:06:57;;;;;;;16.67;11.75;;;;;;;;;;4948580;29;20207;-78
2022/03/23 03:09:23;;;;;;;17.20;11.98;;;;;;;;;;4965507;28;20181;-78
2022/03/23 03:11:50;;;;;;;17.77;11.80;;;;;;;;;;4965426;29;20228;-78
2022/03/23 03:14:16;;;;;;;17.67;11.25;;;;;;;;;;4950066;29;20208;-78
2022/03/23 03:16:42;;;;;;;18.33;12.57;;;;;;;;;;4966150;29;20188;-78
2022/03/23 03:19:09;;;;;;;15.05;11.00;;;;;;;;;;4948854;29;20229;-77
2022/03/23 03:21:35;;;;;;;17.45;12.15;;;;;;;;;;4948678;29;20181;-78
2022/03/23 03:24:01;;;;;;;17.70;11.73;;;;;;;;;;4965414;29;20216;-78
2022/03/23 03:26:30;;;;;;;15.73;11.07;;;;;;;;;;4965877;29;20204;-78
2022/03/23 03:28:56;;;;;;;18.58;11.85;;;;;;;;;;4965557;29;20204;-78
2022/03/23 03:31:23;;;;;;;15.18;11.13;;;;;;;;;;4965854;29;20196;-78
2022/03/23 03:33:49;;;;;;;16.25;11.05;;;;;;;;;;4965485;29;20612;-78
2022/03/23 03:36:15;;;;;;;16.20;13.63;;;;;;;;;;4965127;29;20196;-78
2022/03/23 03:38:41;;;;;;;17.27;10.63;;;;;;;;;;4971970;28;20223;-78
2022/03/23 03:41:07;;;;;;;20.58;11.95;;;;;;;;;;5001322;28;20172;-78
2022/03/23 03:43:34;;;;;;;17.67;13.15;;;;;;;;;;4986671;28;20176;-78
2022/03/23 03:46:00;;;;;;;15.63;11.48;;;;;;;;;;4998042;28;20654;-78
2022/03/23 03:48:26;;;;;;;14.70;10.15;;;;;;;;;;4979259;28;20237;-78
2022/03/23 03:50:52;;;;;;;17.67;11.75;;;;;;;;;;4985628;28;20283;-78
2022/03/23 03:53:18;;;;;;;14.70;10.73;;;;;;;;;;4987387;28;20302;-78
2022/03/23 03:55:44;;;;;;;20.75;10.57;;;;;;;;;;4986010;28;20184;-78
2022/03/23 03:58:11;;;;;;;15.45;10.65;;;;;;;;;;4998403;28;20247;-78
2022/03/23 04:00:37;;;;;;;14.90;10.75;;;;;;;;;;4980044;28;20180;-78
2022/03/23 04:03:04;;;;;;;17.50;10.98;;;;;;;;;;4986114;28;20203;-78
2022/03/23 04:05:30;;;;;;;16.25;10.68;;;;;;;;;;4986457;28;20239;-77
2022/03/23 04:07:57;;;;;;;14.52;10.05;;;;;;;;;;4987527;28;20200;-77
2022/03/23 04:10:23;;;;;;;12.50;9.40;;;;;;;;;;4986971;28;20354;-77
2022/03/23 04:12:49;;;;;;;12.68;10.18;;;;;;;;;;4986323;28;20258;-77
2022/03/23 04:15:15;;;;;;;12.38;9.88;;;;;;;;;;4985451;28;20184;-77
2022/03/23 04:17:41;;;;;;;12.10;10.00;;;;;;;;;;4987367;28;20536;-77
2022/03/23 04:20:08;;;;;;;12.75;9.10;;;;;;;;;;4988190;28;20176;-78
2022/03/23 04:22:34;;;;;;;14.32;10.13;;;;;;;;;;4987904;28;20573;-77
2022/03/23 04:25:00;;;;;;;13.95;10.00;;;;;;;;;;4986210;28;20247;-78
2022/03/23 04:27:26;;;;;;;11.68;9.52;;;;;;;;;;4981884;28;20252;-77
2022/03/23 04:29:53;;;;;;;18.73;10.60;;;;;;;;;;4999760;28;20175;-77
2022/03/23 04:32:19;;;;;;;12.48;9.18;;;;;;;;;;4986152;28;20291;-78
2022/03/23 04:34:45;;;;;;;14.95;10.80;;;;;;;;;;4985387;28;20230;-78
2022/03/23 04:37:11;;;;;;;16.88;9.90;;;;;;;;;;4986007;28;20219;-78
2022/03/23 04:39:37;;;;;;;14.23;9.70;;;;;;;;;;4981717;28;20275;-77
2022/03/23 04:42:03;;;;;;;14.80;9.48;;;;;;;;;;4990726;28;20200;-77
2022/03/23 04:44:29;;;;;;;11.40;9.90;;;;;;;;;;4985007;28;20196;-77
2022/03/23 04:46:55;;;;;;;14.05;9.80;;;;;;;;;;4985788;28;20195;-77
2022/03/23 04:49:21;;;;;;;15.63;10.48;;;;;;;;;;4984718;28;20184;-78
2022/03/23 04:51:47;;;;;;;14.10;9.23;;;;;;;;;;4981455;28;20195;-78
2022/03/23 04:54:13;;;;;;;14.10;11.05;;;;;;;;;;4984288;28;20733;-78
2022/03/23 04:56:39;;;;;;;15.68;9.50;;;;;;;;;;4984949;28;20211;-78
2022/03/23 04:59:05;;;;;;;14.45;10.25;;;;;;;;;;4998609;28;20169;-78
2022/03/23 05:01:31;;;;;;;12.38;9.38;;;;;;;;;;4985313;28;20180;-78
2022/03/23 05:03:57;;;;;;;11.70;9.48;;;;;;;;;;4980835;28;20219;-78
2022/03/23 05:06:23;;;;;;;12.63;9.95;;;;;;;;;;4989411;28;20188;-77
2022/03/23 05:08:49;;;;;;;18.52;9.60;;;;;;;;;;4973992;28;20184;-77
2022/03/23 05:11:15;;;;;;;15.05;10.75;;;;;;;;;;4984790;28;20231;-77
2022/03/23 05:13:41;;;;;;;14.45;10.13;;;;;;;;;;4985479;28;20203;-78
2022/03/23 05:16:07;;;;;;;11.82;8.65;;;;;;;;;;4980324;28;20192;-77
2022/03/23 05:18:34;;;;;;;10.65;8.90;;;;;;;;;;4988686;28;20192;-77
2022/03/23 05:21:00;;;;;;;13.43;9.50;;;;;;;;;;4974241;28;20240;-78
2022/03/23 05:23:26;;;;;;;13.25;9.23;;;;;;;;;;4984056;28;20703;-77
2022/03/23 05:25:52;;;;;;;11.48;8.48;;;;;;;;;;4986678;28;20184;-77
2022/03/23 05:28:18;;;;;;;15.68;9.25;;;;;;;;;;4982804;28;20275;-77
2022/03/23 05:30:44;;;;;;;13.10;8.52;;;;;;;;;;4985066;28;20188;-77
2022/03/23 05:33:10;;;;;;;14.57;9.20;;;;;;;;;;4983230;28;20214;-77
2022/03/23 05:35:36;;;;;;;11.48;9.10;;;;;;;;;;4983964;28;20184;-77
2022/03/23 05:38:02;;;;;;;10.35;9.00;;;;;;;;;;4998187;28;20267;-77
2022/03/23 05:40:28;;;;;;;14.00;8.38;;;;;;;;;;4983847;28;20246;-77
2022/03/23 05:42:54;;;;;;;14.52;8.45;;;;;;;;;;4979635;28;20188;-77
2022/03/23 05:45:20;;;;;;;14.30;8.70;;;;;;;;;;4991179;28;20184;-78
2022/03/23 05:47:48;;;;;;;11.05;8.70;;;;;;;;;;4999527;28;20187;-77
2022/03/23 05:50:14;;;;;;;11.63;7.75;;;;;;;;;;4984549;28;20187;-77
2022/03/23 05:52:40;;;;;;;10.05;8.68;;;;;;;;;;4970052;28;20192;-78
2022/03/23 05:55:07;;;;;;;13.27;8.13;;;;;;;;;;4982882;28;20188;-77
2022/03/23 05:57:33;;;;;;;13.95;8.82;;;;;;;;;;4984044;28;20180;-77
2022/03/23 05:59:59;;;;;;;12.98;7.65;;;;;;;;;;4983682;28;20176;-77
2022/03/23 06:02:26;;;;;;;11.38;7.85;;;;;;;;;;4983487;28;20187;-77
2022/03/23 06:04:51;;;;;;;16.42;9.10;;;;;;;;;;4999602;28;20199;-77
2022/03/23 06:07:18;;;;;;;12.63;8.60;;;;;;;;;;4977123;28;20191;-77
2022/03/23 06:09:44;;;;;;;14.00;9.77;;;;;;;;;;4983567;28;20180;-77
2022/03/23 06:12:12;;;;;;;11.73;8.35;;;;;;;;;;4983951;28;20230;-77
2022/03/23 06:14:42;;;;;;;9.73;7.50;;;;;;;;;;4983933;28;20196;-77
2022/03/23 06:17:08;;;;;;;12.88;7.75;;;;;;;;;;4998095;28;20431;-77
2022/03/23 06:19:34;;;;;;;10.77;8.82;;;;;;;;;;4984867;28;20183;-77
2022/03/23 06:22:00;;;;;;;12.38;8.07;;;;;;;;;;4981688;28;20273;-77
2022/03/23 06:24:26;;;;;;;12.68;8.23;;;;;;;;;;4980844;28;20190;-77
2022/03/23 06:26:52;;;;;;;11.07;8.13;;;;;;;;;;4983920;28;20183;-77
2022/03/23 06:29:18;;;;;;;12.43;8.02;;;;;;;;;;4983617;28;20202;-77
2022/03/23 06:31:44;;;;;;;15.50;7.80;;;;;;;;;;4983098;28;20641;-77
2022/03/23 06:34:10;;;;;;;14.80;8.17;;;;;;;;;;4982542;28;20204;-77
2022/03/23 06:36:36;;;;;;;10.35;8.30;;;;;;;;;;4977440;28;20440;-78
2022/03/23 06:39:03;;;;;;;11.90;9.10;;;;;;;;;;4981719;28;20188;-78
2022/03/23 06:41:29;;;;;;;11.77;7.90;;;;;;;;;;4982348;28;20225;-78
2022/03/23 06:43:55;;;;;;;11.63;9.55;;;;;;;;;;4982607;28;20183;-78
2022/03/23 06:46:21;;;;;;;11.25;8.63;;;;;;;;;;4999100;28;20190;-78
2022/03/23 06:48:47;;;;;;;15.73;7.15;;;;;;;;;;4998086;28;20187;-78
2022/03/23 06:51:13;;;;;;;9.18;7.65;;;;;;;;;;4981864;28;20188;-78
2022/03/23 06:53:40;;;;;;;15.60;10.68;;;;;;;;;;4981396;28;20227;-78
2022/03/23 06:56:06;;;;;;;13.13;9.93;;;;;;;;;;4978234;28;20183;-78
2022/03/23 06:58:32;;;;;;;15.30;11.25;;;;;;;;;;4982775;28;20531;-78
2022/03/23 07:00:59;;;;;;;21.20;14.00;;;;;;;;;;4974469;28;20188;-78
2022/03/23 07:03:25;;;;;;;14.95;11.93;;;;;;;;;;4989881;28;20280;-77
2022/03/23 07:05:51;;;;;;;16.58;11.20;;;;;;;;;;4981510;28;20207;-78
2022/03/23 07:11:02;;;;;;;12.45;9.38;;;;;;;;;;4982998;28;20230;-77
2022/03/23 07:13:28;;;;;;;14.48;9.10;;;;;;;;;;4983646;28;20214;-77
2022/03/23 07:15:54;;;;;;;12.65;9.05;;;;;;;;;;4983124;28;20180;-77
2022/03/23 07:18:20;;;;;;;11.32;8.20;;;;;;;;;;4982730;28;20649;-77
2022/03/23 07:20:46;;;;;;;10.50;8.18;;;;;;;;;;4983675;28;20179;-77
2022/03/23 07:23:12;;;;;;;11.77;7.75;;;;;;;;;;4983400;28;20208;-77
2022/03/23 07:25:38;;;;;;;16.73;8.65;;;;;;;;;;4984162;28;20200;-77
2022/03/23 07:28:05;;;;;;;9.65;8.27;;;;;;;;;;4983688;28;20192;-77
2022/03/23 07:30:33;;;;;;;10.50;9.40;;;;;;;;;;4977217;28;20215;-77
2022/03/23 07:33:00;;;;;;;11.02;8.95;;;;;;;;;;4987597;28;20216;-77
2022/03/23 07:35:26;;;;;;;12.13;9.27;;;;;;;;;;4983252;28;20192;-77
2022/03/23 07:37:52;;;;;;;9.63;7.85;;;;;;;;;;4984403;28;20168;-77
2022/03/23 07:40:18;;;;;;;15.85;8.88;;;;;;;;;;4981769;28;20203;-77
2022/03/23 07:42:44;;;;;;;10.98;8.90;;;;;;;;;;4983205;28;20660;-78
2022/03/23 07:45:10;;;;;;;19.25;10.05;;;;;;;;;;4998100;28;20188;-77
2022/03/23 07:47:36;;;;;;;17.20;9.50;;;;;;;;;;4982824;28;20180;-77
2022/03/23 07:50:02;;;;;;;10.60;8.80;;;;;;;;;;4983320;28;20540;-78
2022/03/23 07:52:29;;;;;;;13.93;9.93;;;;;;;;;;4982481;28;20168;-78
2022/03/23 07:54:55;;;;;;;18.23;10.27;;;;;;;;;;4986626;28;20208;-77
2022/03/23 07:57:21;;;;;;;21.30;17.47;;;;;;;;;;4985627;28;20211;-77
2022/03/23 07:59:46;;;;;;;20.50;11.15;;;;;;;;;;4984845;28;20443;-79
2022/03/23 08:02:13;;;;;;;16.60;10.77;;;;;;;;;;4987055;28;20191;-79
2022/03/23 08:04:39;;;;;;;15.85;13.05;;;;;;;;;;4985373;28;20608;-78
2022/03/23 08:07:08;;;;;;;20.65;11.80;;;;;;;;;;4986001;28;20485;-81
2022/03/23 08:09:34;;;;;;;15.80;11.75;;;;;;;;;;4999352;28;20189;-78
2022/03/23 08:12:00;;;;;;;15.40;10.75;;;;;;;;;;4984745;28;20227;-77
2022/03/23 08:14:26;;;;;;;13.18;10.02;;;;;;;;;;5001499;28;20234;-77
2022/03/23 08:16:52;;;;;;;14.25;10.63;;;;;;;;;;4986591;28;20176;-78
2022/03/23 08:19:20;;;;;;;11.85;9.18;;;;;;;;;;4984825;28;20192;-78
2022/03/23 08:21:46;;;;;;;17.48;11.40;;;;;;;;;;4985682;28;20264;-78
2022/03/23 08:24:12;;;;;;;11.75;9.27;;;;;;;;;;4985395;28;20184;-77
2022/03/23 08:26:38;;;;;;;10.30;7.93;;;;;;;;;;4979481;28;20239;-77
2022/03/23 08:29:04;;;;;;;9.63;8.07;;;;;;;;;;4999580;28;20552;-76
2022/03/23 08:31:30;;;;;;;8.63;7.65;;;;;;;;;;4985656;28;20187;-77
2022/03/23 08:33:56;;;;;;;8.27;7.25;;;;;;;;;;4984264;28;20211;-77
2022/03/23 08:36:22;;;;;;;9.52;7.43;;;;;;;;;;4979004;28;20187;-76
2022/03/23 08:38:47;;;;;;;9.30;7.90;;;;;;;;;;4985114;28;20211;-77
2022/03/23 08:41:14;;;;;;;12.40;8.30;;;;;;;;;;4998304;28;20457;-77
2022/03/23 08:43:41;;;;;;;14.05;8.50;;;;;;;;;;4994474;28;20426;-77
2022/03/23 08:46:07;;;;;;;11.15;7.65;;;;;;;;;;4982958;28;20194;-78
2022/03/23 08:48:34;;;;;;;10.50;8.50;;;;;;;;;;4981346;28;20188;-78
2022/03/23 08:51:00;;;;;;;9.60;7.55;;;;;;;;;;4983701;28;20184;-78
2022/03/23 08:53:26;;;;;;;13.85;7.57;;;;;;;;;;4996547;28;20568;-78
2022/03/23 08:55:52;;;;;;;11.63;7.35;;;;;;;;;;4991853;28;20235;-78
2022/03/23 08:58:18;;;;;;;9.90;7.47;;;;;;;;;;4982749;28;20184;-78
2022/03/23 09:00:44;;;;;;;7.25;6.63;;;;;;;;;;4999699;28;20214;-78
2022/03/23 09:03:10;;;;;;;9.75;6.75;;;;;;;;;;4985581;28;20210;-78
2022/03/23 09:05:37;;;;;;;10.73;6.93;;;;;;;;;;4982278;28;20188;-78
2022/03/23 09:08:03;;;;;;;10.25;6.85;;;;;;;;;;4985039;28;20180;-77
2022/03/23 09:10:29;;;;;;;8.30;7.28;;;;;;;;;;4984991;28;20179;-77
2022/03/23 09:12:55;;;;;;;8.90;6.90;;;;;;;;;;4984331;28;20226;-77
2022/03/23 09:15:23;;;;;;;9.82;6.78;;;;;;;;;;4982094;28;20187;-78
2022/03/23 09:17:49;;;;;;;6.70;5.97;;;;;;;;;;4997565;28;20176;-77
2022/03/23 09:20:16;;;;;;;7.10;6.47;;;;;;;;;;4983253;28;20192;-78
2022/03/23 09:22:44;;;;;;;9.50;6.32;;;;;;;;;;4984760;28;20503;-77
2022/03/23 09:25:11;;;;;;;6.95;5.43;;;;;;;;;;4982327;28;20192;-77
2022/03/23 09:27:38;;;;;;;6.15;5.38;;;;;;;;;;4997351;28;20239;-77
2022/03/23 09:30:08;;;;;;;9.50;6.55;;;;;;;;;;4983484;28;20184;-76
2022/03/23 09:32:34;;;;;;;7.45;6.13;;;;;;;;;;4984844;28;20179;-77
2022/03/23 09:35:00;;;;;;;6.07;5.40;;;;;;;;;;4984086;28;20746;-78
2022/03/23 09:40:14;;;;;;;9.77;5.72;;;;;;;;;;4984815;28;20256;-76
2022/03/23 09:42:41;;;;;;;7.30;6.35;;;;;;;;;;4984276;28;20191;-78
2022/03/23 09:45:07;;;;;;;7.47;5.53;;;;;;;;;;4984083;28;20551;-78
2022/03/23 09:47:33;;;;;;;8.73;5.80;;;;;;;;;;4983703;28;20193;-78
2022/03/23 09:49:59;;;;;;;10.27;6.07;;;;;;;;;;4982615;28;20187;-77
2022/03/23 09:52:27;;;;;;;6.10;5.50;;;;;;;;;;4996358;28;20191;-78
2022/03/23 09:54:53;;;;;;;6.75;5.45;;;;;;;;;;4977059;28;20441;-79
2022/03/23 09:57:19;;;;;;;6.93;5.80;;;;;;;;;;4981304;28;20366;-77
2022/03/23 09:59:45;;;;;;;11.67;8.60;;;;;;;;;;4983746;28;20515;-80
2022/03/23 10:02:46;;;;;;;9.50;6.57;;;;;;;;;;4982653;28;20783;-78
2022/03/23 10:05:22;;;;;;;6.70;5.72;;;;;;;;;;4981260;28;20183;-78
2022/03/23 10:08:07;;;;;;;8.98;5.55;;;;;;;;;;4969741;28;20260;-78
2022/03/23 10:10:33;;;;;;;7.40;5.75;;;;;;;;;;4969132;28;20223;-79
2022/03/23 10:13:17;;;;;;;7.87;4.97;;;;;;;;;;4969854;28;20196;-78
2022/03/23 10:16:02;;;;;;;7.20;6.50;;;;;;;;;;4984753;28;20806;-79
2022/03/23 10:18:46;;;;;;;8.15;6.38;;;;;;;;;;4977638;28;20728;-80
2022/03/23 10:21:12;;;;;;;11.23;6.20;;;;;;;;;;4994460;28;20192;-79
2022/03/23 10:23:39;;;;;;;9.32;6.13;;;;;;;;;;4980970;28;20317;-79
2022/03/23 10:26:12;;;;;;;7.65;6.47;;;;;;;;;;4984432;28;20186;-81
2022/03/23 10:28:38;;;;;;;9.25;5.82;;;;;;;;;;4997814;28;20191;-80
2022/03/23 10:31:15;;;;;;;8.90;6.20;;;;;;;;;;4987767;28;20209;-79
2022/03/23 10:33:41;;;;;;;6.25;5.75;;;;;;;;;;4977847;28;20218;-79
2022/03/23 10:36:07;;;;;;;10.23;6.60;;;;;;;;;;4986311;28;20232;-79
2022/03/23 10:38:37;;;;;;;6.60;5.03;;;;;;;;;;4967151;28;20476;-77
2022/03/23 10:41:09;;;;;;;10.35;7.05;;;;;;;;;;4997664;28;20939;-78
2022/03/23 10:43:37;;;;;;;7.35;6.65;;;;;;;;;;4984640;28;20539;-79
2022/03/23 10:46:10;;;;;;;8.65;6.32;;;;;;;;;;4983106;28;20194;-79
2022/03/23 10:48:36;;;;;;;8.50;6.70;;;;;;;;;;4980896;28;20260;-78
2022/03/23 10:51:03;;;;;;;8.80;6.38;;;;;;;;;;4975276;28;20229;-78
2022/03/23 10:53:38;;;;;;;10.13;7.00;;;;;;;;;;4983681;28;20211;-79
2022/03/23 10:56:05;;;;;;;8.48;7.47;;;;;;;;;;4997731;28;20186;-80
2022/03/23 10:58:32;;;;;;;7.38;6.50;;;;;;;;;;4983124;28;20173;-78
2022/03/23 11:01:05;;;;;;;7.05;6.35;;;;;;;;;;4982230;28;20182;-78
2022/03/23 11:03:50;;;;;;;6.35;5.30;;;;;;;;;;4983310;28;20208;-79
2022/03/23 11:06:17;;;;;;;11.23;6.75;;;;;;;;;;4983216;28;20187;-78
2022/03/23 11:08:44;;;;;;;7.85;6.60;;;;;;;;;;4983673;28;20199;-78
2022/03/23 11:16:51;;;;;;;9.13;7.13;;;;;;;;;;4982734;28;20207;-78
2022/03/23 11:19:19;;;;;;;9.50;6.60;;;;;;;;;;4981297;28;20183;-79
2022/03/23 11:21:58;;;;;;;9.93;7.18;;;;;;;;;;4975927;28;20642;-79
2022/03/23 11:24:24;;;;;;;8.77;7.93;;;;;;;;;;4986909;28;20196;-78
2022/03/23 11:26:52;;;;;;;8.95;6.93;;;;;;;;;;4986775;28;20238;-78
2022/03/23 11:29:19;;;;;;;8.13;6.43;;;;;;;;;;5001581;28;20270;-78
2022/03/23 11:31:45;;;;;;;9.68;7.45;;;;;;;;;;4984926;28;20242;-78
2022/03/23 11:34:13;;;;;;;8.75;7.40;;;;;;;;;;4986103;28;20196;-78
2022/03/23 11:36:39;;;;;;;9.43;8.48;;;;;;;;;;4986497;28;20193;-79
2022/03/23 11:39:05;;;;;;;8.25;6.18;;;;;;;;;;4986524;28;20195;-80
2022/03/23 11:41:33;;;;;;;10.50;7.30;;;;;;;;;;4999719;28;20188;-79
2022/03/23 11:43:59;;;;;;;10.02;7.90;;;;;;;;;;5002287;28;20435;-80
2022/03/23 11:46:25;;;;;;;8.53;7.57;;;;;;;;;;4986614;28;20191;-81
2022/03/23 11:49:01;;;;;;;8.15;7.35;;;;;;;;;;4986914;28;20449;-79
2022/03/23 11:51:30;;;;;;;8.25;7.45;;;;;;;;;;4981819;28;20681;-80
2022/03/23 11:54:11;;;;;;;9.88;7.97;;;;;;;;;;4975685;28;20207;-79
2022/03/23 11:56:46;;;;;;;11.38;8.13;;;;;;;;;;4985139;28;20266;-79
2022/03/23 11:59:20;;;;;;;10.03;8.00;;;;;;;;;;5001073;28;20172;-81
2022/03/23 12:01:46;;;;;;;7.03;6.30;;;;;;;;;;4984720;28;20419;-79
2022/03/23 12:04:13;;;;;;;9.80;7.50;;;;;;;;;;4998298;28;20445;-80
2022/03/23 12:06:43;;;;;;;9.93;8.30;;;;;;;;;;4981111;28;20452;-80
2022/03/23 12:09:10;;;;;;;8.40;7.50;;;;;;;;;;4986319;28;20423;-80
2022/03/23 12:11:38;;;;;;;8.97;7.90;;;;;;;;;;4986156;28;20456;-80
2022/03/23 12:14:07;;;;;;;10.17;7.40;;;;;;;;;;4986507;28;20503;-79
2022/03/23 12:16:52;;;;;;;7.90;7.00;;;;;;;;;;4986266;28;20862;-80
2022/03/23 12:19:18;;;;;;;8.73;7.93;;;;;;;;;;5000726;28;20454;-79
2022/03/23 12:21:49;;;;;;;10.00;8.73;;;;;;;;;;4986226;28;20445;-79
2022/03/23 12:24:18;;;;;;;10.97;8.87;;;;;;;;;;4985331;28;20531;-79
2022/03/23 12:26:47;;;;;;;9.60;8.40;;;;;;;;;;4986437;28;20423;-79
2022/03/23 12:29:16;;;;;;;10.37;9.33;;;;;;;;;;4982297;28;20957;-79
2022/03/23 12:31:42;;;;;;;11.30;8.43;;;;;;;;;;4986988;28;20390;-86
2022/03/23 12:34:11;;;;;;;9.50;8.53;;;;;;;;;;4981281;28;20881;-80
2022/03/23 12:37:01;;;;;;;8.77;8.10;;;;;;;;;;4990790;28;20472;-80
2022/03/23 12:39:27;;;;;;;9.30;8.43;;;;;;;;;;4970662;28;20412;-79
2022/03/23 12:41:53;;;;;;;9.23;8.33;;;;;;;;;;4974230;28;20461;-79
2022/03/23 12:44:28;;;;;;;9.13;8.30;;;;;;;;;;5000170;28;20592;-80
2022/03/23 12:46:54;;;;;;;8.80;8.00;;;;;;;;;;4981361;28;20418;-79
2022/03/23 12:57:50;;;;;;;10.37;9.40;;;;;;;;;;4984616;28;20513;-77
2022/03/23 13:00:25;;;;;;;9.67;8.63;;;;;;;;;;4984713;28;20443;-77
2022/03/23 13:03:06;;;;;;;9.87;9.07;;;;;;;;;;4975505;28;20525;-77
2022/03/23 13:05:37;;;;;;;9.70;8.70;;;;;;;;;;4975601;28;20438;-77
2022/03/23 13:08:22;;;;;;;12.43;10.17;;;;;;;;;;4985932;28;20506;-77
2022/03/23 13:10:58;;;;;;;9.87;8.87;;;;;;;;;;4985179;28;20466;-77
2022/03/23 13:13:29;;;;;;;10.20;9.23;;;;;;;;;;4985584;28;20466;-78
2022/03/23 13:15:56;;;;;;;9.80;8.90;;;;;;;;;;4975835;28;20450;-77
2022/03/23 13:18:25;;;;;;;11.90;9.83;;;;;;;;;;4977654;28;20466;-77
2022/03/23 13:20:52;;;;;;;9.53;8.73;;;;;;;;;;4985557;28;20453;-78
2022/03/23 13:23:19;;;;;;;9.97;9.10;;;;;;;;;;4983923;28;20810;-78
2022/03/23 13:25:45;;;;;;;11.40;9.87;;;;;;;;;;4986895;28;20430;-77
2022/03/23 13:28:14;;;;;;;11.43;10.43;;;;;;;;;;4980751;28;20487;-79
2022/03/23 13:30:42;;;;;;;12.13;11.17;;;;;;;;;;4980520;28;20442;-78
2022/03/23 13:33:17;;;;;;;10.17;9.33;;;;;;;;;;4984582;28;20439;-77
2022/03/23 13:35:44;;;;;;;10.97;10.17;;;;;;;;;;4985286;28;20446;-77
2022/03/23 13:38:11;;;;;;;11.43;10.40;;;;;;;;;;4984305;28;20419;-77
2022/03/23 13:43:34;;;;;;;11.97;10.97;;;;;;;;;;5016441;28;20414;-75
2022/03/23 13:46:01;;;;;;;11.80;10.80;;;;;;;;;;5020314;28;20448;-77
2022/03/23 13:48:31;;;;;;;11.73;9.97;;;;;;;;;;5020297;28;20441;-78
2022/03/23 13:50:57;;;;;;;10.63;9.53;;;;;;;;;;5021628;28;20437;-76
2022/03/23 13:53:23;;;;;;;10.47;9.47;;;;;;;;;;5003902;28;20461;-77
2022/03/23 13:55:51;;;;;;;12.03;9.13;;;;;;;;;;5005391;28;20421;-77
2022/03/23 13:58:17;;;;;;;10.67;9.77;;;;;;;;;;4998805;28;20465;-77
2022/03/23 14:00:44;;;;;;;10.53;9.70;;;;;;;;;;5016570;28;20445;-77
2022/03/23 14:03:11;;;;;;;10.30;9.43;;;;;;;;;;5021101;28;20618;-77
2022/03/23 14:05:37;;;;;;;10.57;9.67;;;;;;;;;;5004270;28;20550;-76
2022/03/23 14:08:05;;;;;;;10.93;10.03;;;;;;;;;;5020623;28;20555;-76
2022/03/23 14:10:38;;;;;;;11.00;9.97;;;;;;;;;;5021556;28;20441;-76
2022/03/23 14:13:10;;;;;;;10.67;9.70;;;;;;;;;;5020870;28;20452;-77
2022/03/23 14:15:53;;;;;;;10.27;9.37;;;;;;;;;;5020566;28;20456;-76
2022/03/23 14:18:21;;;;;;;11.40;9.50;;;;;;;;;;5021427;28;20933;-77
2022/03/23 14:20:51;;;;;;;11.50;10.30;;;;;;;;;;4988406;28;20447;-77
2022/03/23 14:23:18;;;;;;;10.13;9.30;;;;;;;;;;4981893;28;20447;-77
2022/03/23 14:25:45;;;;;;;10.73;9.73;;;;;;;;;;4996244;28;20455;-77
2022/03/23 14:28:21;;;;;;;11.83;9.80;;;;;;;;;;4979006;28;20449;-76
2022/03/23 14:30:55;;;;;;;10.97;9.87;;;;;;;;;;4983368;28;20457;-76
2022/03/23 14:33:22;;;;;;;10.00;9.10;;;;;;;;;;4997348;28;20497;-76
2022/03/23 14:35:49;;;;;;;9.83;8.90;;;;;;;;;;4983711;28;20475;-77
2022/03/23 14:38:19;;;;;;;11.03;9.93;;;;;;;;;;4998757;28;20696;-77
2022/03/23 14:41:00;;;;;;;12.17;8.90;;;;;;;;;;4983687;28;20572;-76
2022/03/23 14:43:31;;;;;;;10.33;9.33;;;;;;;;;;4982440;28;20452;-75
2022/03/23 14:45:58;;;;;;;11.50;9.33;;;;;;;;;;4982129;28;20589;-75
2022/03/23 14:48:27;;;;;;;11.67;10.13;;;;;;;;;;4983937;28;20410;-77
2022/03/23 14:50:55;;;;;;;11.73;9.37;;;;;;;;;;4975718;28;20441;-77
2022/03/23 14:53:22;;;;;;;13.10;9.90;;;;;;;;;;4979847;28;20497;-77
2022/03/23 14:55:49;;;;;;;14.93;10.47;;;;;;;;;;4984913;28;20422;-77
2022/03/23 14:58:30;;;;;;;14.77;10.60;;;;;;;;;;4982142;28;20433;-79
2022/03/23 15:00:58;;;;;;;12.83;9.73;;;;;;;;;;4982912;28;20793;-78
2022/03/23 15:03:28;;;;;;;11.37;9.10;;;;;;;;;;4984666;28;20913;-78